Time;durP1;ratioP1;P1;durP2;ratioP2;P2;SDS_P1;SDS_P2;PMS_P1;PMS_P2;Temp;Humidity;BMP_temperature;BMP_pressure;BME280_temperature;BME280_humidity;BME280_pressure;Samples;Min_cycle;Max_cycle;Signal;HPM_P1;HPM_P2
2021/03/26 05:02:26;;;;;;;69.78;34.72;;;4.90;99.90;;;;;;5046801;23;20254;-71
2021/03/26 05:04:55;;;;;;;69.53;34.50;;;4.90;99.90;;;;;;4935573;29;20812;-72
2021/03/26 05:07:31;;;;;;;69.80;34.05;;;4.90;99.90;;;;;;4916939;29;20787;-71
2021/03/26 05:10:03;;;;;;;84.70;37.03;;;4.90;99.90;;;;;;4920021;29;20222;-73
2021/03/26 05:12:33;;;;;;;66.28;34.47;;;5.00;99.90;;;;;;4915634;29;20234;-73
2021/03/26 05:15:05;;;;;;;74.38;35.55;;;5.00;99.90;;;;;;4904508;29;20207;-73
2021/03/26 05:17:40;;;;;;;74.75;36.60;;;5.00;99.90;;;;;;4901270;29;20213;-73
2021/03/26 05:20:17;;;;;;;74.40;37.03;;;5.00;99.90;;;;;;4905055;29;20221;-73
2021/03/26 05:22:48;;;;;;;71.13;34.75;;;5.10;99.90;;;;;;4899973;29;20211;-73
2021/03/26 05:25:21;;;;;;;73.03;36.03;;;5.20;99.90;;;;;;4912028;29;20698;-73
2021/03/26 05:27:47;;;;;;;79.82;35.08;;;5.20;99.90;;;;;;4920850;29;20262;-73
2021/03/26 05:30:20;;;;;;;81.78;35.70;;;5.20;99.90;;;;;;4914769;29;20241;-73
2021/03/26 05:32:53;;;;;;;76.70;34.95;;;5.30;99.90;;;;;;4921214;29;20262;-73
2021/03/26 05:35:24;;;;;;;76.55;35.25;;;5.30;99.90;;;;;;4912147;29;20203;-73
2021/03/26 05:37:58;;;;;;;78.03;35.65;;;5.30;99.90;;;;;;4910462;29;20267;-73
2021/03/26 05:40:44;;;;;;;76.63;35.88;;;5.40;99.90;;;;;;4905098;29;20282;-73
2021/03/26 05:43:16;;;;;;;72.13;36.15;;;5.40;99.90;;;;;;4916934;29;20217;-73
2021/03/26 05:45:53;;;;;;;77.10;36.45;;;5.50;99.90;;;;;;4908262;29;20226;-73
2021/03/26 05:48:36;;;;;;;71.93;35.75;;;5.50;99.90;;;;;;4900664;29;20227;-73
2021/03/26 05:51:20;;;;;;;77.13;35.97;;;5.50;99.90;;;;;;4905166;29;20585;-74
2021/03/26 05:53:56;;;;;;;69.97;33.20;;;5.60;99.90;;;;;;4899843;29;20226;-73
2021/03/26 05:56:32;;;;;;;75.28;33.60;;;5.60;99.90;;;;;;4913717;29;20691;-73
2021/03/26 05:59:33;;;;;;;68.80;35.35;;;5.60;99.90;;;;;;4916742;29;20249;-73
2021/03/26 06:02:37;;;;;;;76.50;34.20;;;5.70;99.90;;;;;;4909923;29;20714;-73
2021/03/26 06:05:24;;;;;;;64.85;32.92;;;5.80;99.90;;;;;;4903083;29;20210;-73
2021/03/26 06:08:15;;;;;;;64.15;34.50;;;5.80;99.90;;;;;;4907302;29;20239;-73
2021/03/26 06:11:08;;;;;;;73.30;35.85;;;5.90;99.90;;;;;;4904709;29;20712;-72
2021/03/26 06:13:52;;;;;;;62.83;32.33;;;6.00;99.90;;;;;;4897270;29;20359;-72
2021/03/26 06:16:43;;;;;;;62.17;32.60;;;6.00;99.90;;;;;;4913190;29;20206;-72
2021/03/26 06:19:40;;;;;;;63.70;32.55;;;6.10;99.90;;;;;;4915437;29;20237;-73
2021/03/26 06:22:32;;;;;;;63.67;33.83;;;6.20;99.90;;;;;;4919854;29;20251;-72
2021/03/26 06:25:37;;;;;;;67.40;34.42;;;6.30;99.90;;;;;;4926403;29;20210;-72
2021/03/26 06:28:20;;;;;;;59.47;33.90;;;6.40;99.90;;;;;;4917375;29;20214;-73
2021/03/26 06:31:06;;;;;;;63.92;31.83;;;6.50;99.90;;;;;;4904432;29;20253;-72
2021/03/26 06:34:09;;;;;;;65.93;36.10;;;6.60;99.90;;;;;;4897174;29;20207;-73
2021/03/26 06:36:58;;;;;;;54.83;31.10;;;6.70;99.90;;;;;;4908526;29;20269;-73
2021/03/26 06:39:38;;;;;;;59.72;32.47;;;6.80;99.90;;;;;;4902900;29;20207;-73
2021/03/26 06:42:22;;;;;;;54.55;31.80;;;6.90;99.90;;;;;;4912033;29;20242;-73
2021/03/26 06:45:27;;;;;;;63.45;34.53;;;7.00;99.90;;;;;;4907229;29;20214;-72
2021/03/26 06:48:07;;;;;;;50.25;30.90;;;7.00;99.90;;;;;;4907677;29;20521;-72
2021/03/26 06:50:50;;;;;;;57.65;32.60;;;7.10;99.90;;;;;;4898852;29;20223;-73
2021/03/26 06:53:28;;;;;;;63.20;33.08;;;7.20;99.90;;;;;;4907285;29;20320;-73
2021/03/26 06:56:05;;;;;;;61.70;34.83;;;7.40;99.90;;;;;;4898537;29;20223;-72
2021/03/26 06:59:15;;;;;;;56.47;33.47;;;7.50;99.90;;;;;;4898550;29;20214;-72
2021/03/26 07:02:01;;;;;;;52.72;30.77;;;7.60;99.90;;;;;;4909245;29;20297;-71
2021/03/26 07:04:53;;;;;;;56.33;30.67;;;7.60;99.90;;;;;;4915476;29;20620;-72
2021/03/26 07:07:55;;;;;;;56.25;30.77;;;7.70;99.90;;;;;;4915912;29;20211;-71
2021/03/26 07:10:36;;;;;;;50.10;29.80;;;7.80;99.90;;;;;;4910719;29;20269;-72
2021/03/26 07:13:28;;;;;;;52.28;29.65;;;8.00;99.90;;;;;;4915523;29;20210;-73
2021/03/26 07:16:03;;;;;;;51.03;29.95;;;8.10;99.90;;;;;;4914856;29;20217;-73
2021/03/26 07:18:46;;;;;;;55.40;31.67;;;8.20;99.90;;;;;;4915689;29;20693;-72
2021/03/26 07:21:30;;;;;;;50.40;31.38;;;8.40;99.90;;;;;;4914040;29;20679;-73
2021/03/26 07:24:30;;;;;;;49.90;28.73;;;8.40;99.90;;;;;;4911977;29;20489;-73
2021/03/26 07:27:08;;;;;;;49.17;29.85;;;8.50;99.90;;;;;;4915011;29;20214;-72
2021/03/26 07:29:50;;;;;;;50.00;31.17;;;8.60;99.90;;;;;;4914649;29;20237;-73
2021/03/26 07:32:29;;;;;;;57.55;33.63;;;8.80;99.90;;;;;;4918732;29;20238;-72
2021/03/26 07:35:21;;;;;;;49.67;30.98;;;8.90;99.90;;;;;;4918402;29;20301;-72
2021/03/26 07:38:02;;;;;;;53.97;31.90;;;9.00;99.90;;;;;;4918987;29;20631;-73
2021/03/26 07:40:38;;;;;;;48.88;32.08;;;9.20;99.90;;;;;;4918197;29;20277;-72
2021/03/26 07:43:25;;;;;;;50.20;29.38;;;9.30;99.90;;;;;;4909366;29;20356;-72
2021/03/26 07:46:18;;;;;;;52.33;31.17;;;9.40;99.90;;;;;;4919069;29;20554;-72
2021/03/26 07:49:21;;;;;;;53.72;32.20;;;9.50;99.90;;;;;;4917537;29;20285;-72
2021/03/26 07:51:55;;;;;;;47.58;30.58;;;9.70;99.90;;;;;;4917596;29;20226;-73
2021/03/26 07:54:40;;;;;;;53.17;31.33;;;9.80;99.90;;;;;;4917625;29;20659;-72
2021/03/26 07:57:31;;;;;;;51.10;31.05;;;9.90;99.90;;;;;;4917621;29;20218;-72
2021/03/26 08:00:10;;;;;;;47.58;30.17;;;10.00;99.90;;;;;;4917904;29;20301;-72
2021/03/26 08:02:48;;;;;;;47.28;31.05;;;10.10;99.90;;;;;;4912689;29;20215;-72
2021/03/26 08:05:21;;;;;;;48.00;30.27;;;10.20;99.90;;;;;;4911513;29;20230;-72
2021/03/26 08:08:13;;;;;;;41.22;28.83;;;10.30;99.90;;;;;;4900672;29;20223;-73
2021/03/26 08:10:47;;;;;;;42.72;29.25;;;10.40;99.90;;;;;;4910576;29;20229;-72
2021/03/26 08:13:43;;;;;;;45.47;30.67;;;10.60;99.90;;;;;;4899286;29;20289;-72
2021/03/26 08:16:45;;;;;;;51.35;30.38;;;10.70;99.90;;;;;;4899317;29;20270;-72
2021/03/26 08:19:21;;;;;;;39.33;28.70;;;10.80;99.90;;;;;;4916347;29;20727;-72
2021/03/26 08:21:56;;;;;;;40.47;27.98;;;10.90;99.90;;;;;;4911603;29;20225;-72
2021/03/26 08:24:48;;;;;;;44.28;28.27;;;11.00;99.90;;;;;;4915654;29;20691;-73
2021/03/26 08:27:31;;;;;;;41.67;27.50;;;11.10;99.90;;;;;;4899021;29;20266;-73
2021/03/26 08:30:22;;;;;;;37.10;25.95;;;11.20;99.90;;;;;;4909903;29;20227;-72
2021/03/26 08:33:05;;;;;;;39.05;26.38;;;11.30;99.90;;;;;;4909935;29;20215;-72
2021/03/26 08:35:48;;;;;;;36.50;26.45;;;11.30;99.90;;;;;;4915552;29;20222;-72
2021/03/26 08:38:32;;;;;;;40.97;27.55;;;11.40;99.90;;;;;;4917041;29;20207;-72
2021/03/26 08:41:01;;;;;;;39.17;27.00;;;11.40;99.90;;;;;;4915122;29;20237;-72
2021/03/26 08:43:30;;;;;;;38.58;27.50;;;11.50;99.90;;;;;;4911188;29;20214;-72
2021/03/26 08:46:07;;;;;;;38.92;26.73;;;11.60;99.90;;;;;;4905243;29;20217;-72
2021/03/26 08:48:40;;;;;;;38.30;27.17;;;11.60;99.90;;;;;;4900345;29;20230;-72
2021/03/26 08:51:27;;;;;;;33.47;23.90;;;11.70;99.90;;;;;;4905834;29;20242;-72
2021/03/26 08:54:04;;;;;;;36.08;25.45;;;11.80;99.90;;;;;;4911189;29;20200;-73
2021/03/26 08:56:47;;;;;;;36.75;26.58;;;11.80;99.90;;;;;;4901898;29;20214;-72
2021/03/26 08:59:24;;;;;;;32.05;22.77;;;11.80;99.90;;;;;;4916924;29;20636;-72
2021/03/26 09:02:11;;;;;;;31.30;23.00;;;11.90;99.90;;;;;;4908672;29;20242;-74
2021/03/26 09:04:54;;;;;;;32.00;22.40;;;11.90;99.90;;;;;;4914717;29;20219;-72
2021/03/26 09:07:37;;;;;;;36.20;23.40;;;11.90;99.90;;;;;;4914781;29;20211;-73
2021/03/26 09:10:31;;;;;;;33.50;23.38;;;12.10;99.90;;;;;;4916765;29;20222;-73
2021/03/26 09:13:18;;;;;;;31.33;22.27;;;12.10;99.90;;;;;;4914774;29;20202;-73
2021/03/26 09:15:57;;;;;;;31.65;23.95;;;12.20;99.90;;;;;;4915720;29;20210;-72
2021/03/26 09:18:46;;;;;;;33.25;23.67;;;12.30;99.90;;;;;;4916814;29;20210;-72
2021/03/26 09:21:29;;;;;;;28.90;22.38;;;12.40;99.90;;;;;;4916166;29;20306;-72
2021/03/26 09:24:26;;;;;;;26.38;20.73;;;12.50;99.90;;;;;;4916424;29;20691;-72
2021/03/26 09:27:08;;;;;;;24.17;17.98;;;12.60;99.90;;;;;;4912184;29;20203;-71
2021/03/26 09:29:43;;;;;;;22.83;18.38;;;12.60;99.90;;;;;;4917033;29;20250;-73
2021/03/26 09:32:16;;;;;;;29.77;18.73;;;12.70;99.90;;;;;;4916263;29;20716;-71
2021/03/26 09:34:48;;;;;;;20.42;17.25;;;12.80;99.90;;;;;;4915852;29;20203;-71
2021/03/26 09:37:20;;;;;;;20.85;15.80;;;12.80;99.90;;;;;;4907393;29;20223;-71
2021/03/26 09:39:49;;;;;;;20.63;17.02;;;13.00;99.90;;;;;;4910671;29;20317;-73
2021/03/26 09:42:32;;;;;;;22.80;16.53;;;13.30;99.90;;;;;;4915420;29;20226;-74
2021/03/26 09:45:05;;;;;;;20.65;16.67;;;13.30;99.90;;;;;;4916377;29;20835;-70
2021/03/26 09:47:37;;;;;;;21.77;16.87;;;13.30;99.90;;;;;;4898960;29;20218;-70
2021/03/26 09:50:21;;;;;;;18.83;16.33;;;13.20;99.90;;;;;;4900093;29;20540;-73
2021/03/26 09:52:49;;;;;;;22.55;17.40;;;13.10;99.90;;;;;;4914107;29;20540;-72
2021/03/26 09:55:25;;;;;;;21.08;16.10;;;13.10;99.90;;;;;;4918296;29;20229;-75
2021/03/26 09:57:58;;;;;;;19.70;16.50;;;13.10;99.90;;;;;;4900232;29;20217;-73
2021/03/26 10:00:48;;;;;;;20.20;16.27;;;13.20;99.90;;;;;;4898561;29;20302;-72
2021/03/26 10:03:35;;;;;;;19.98;15.15;;;13.20;99.90;;;;;;4899826;29;20604;-74
2021/03/26 10:06:06;;;;;;;16.55;12.10;;;13.30;99.90;;;;;;4901983;29;20214;-73
2021/03/26 10:08:55;;;;;;;16.50;13.68;;;13.40;99.90;;;;;;4917298;29;20226;-73
2021/03/26 10:11:25;;;;;;;18.17;13.85;;;13.50;99.90;;;;;;4909573;29;20250;-74
2021/03/26 10:13:54;;;;;;;17.00;13.63;;;13.50;99.90;;;;;;4900158;29;20302;-71
2021/03/26 10:16:28;;;;;;;16.50;13.85;;;13.50;99.90;;;;;;4911987;29;20203;-75
2021/03/26 10:19:01;;;;;;;18.00;14.70;;;13.50;99.90;;;;;;4919494;29;20206;-74
2021/03/26 10:21:30;;;;;;;16.00;13.60;;;13.50;99.90;;;;;;4916367;29;20522;-75
2021/03/26 10:24:13;;;;;;;17.10;13.00;;;13.50;99.90;;;;;;4916598;29;20469;-74
2021/03/26 10:26:48;;;;;;;14.13;12.00;;;13.70;99.90;;;;;;4920872;29;20210;-74
2021/03/26 10:29:21;;;;;;;16.20;13.10;;;13.80;99.90;;;;;;4920018;29;20524;-75
2021/03/26 10:31:50;;;;;;;16.90;14.50;;;13.90;99.90;;;;;;4918275;29;20493;-74
2021/03/26 10:34:19;;;;;;;15.97;14.27;;;14.00;99.90;;;;;;4903600;29;20543;-74
2021/03/26 10:36:52;;;;;;;21.33;15.00;;;14.00;99.90;;;;;;4915291;29;20463;-73
2021/03/26 10:39:23;;;;;;;16.27;14.57;;;14.20;99.90;;;;;;4903077;29;20603;-73
2021/03/26 10:42:10;;;;;;;18.27;15.23;;;14.20;99.90;;;;;;4906226;29;20490;-74
2021/03/26 10:44:45;;;;;;;20.30;17.80;;;14.30;99.90;;;;;;4922880;29;20490;-72
2021/03/26 10:47:19;;;;;;;20.90;17.00;;;14.30;99.90;;;;;;4923773;29;20210;-74
2021/03/26 10:49:50;;;;;;;18.53;16.20;;;14.40;99.90;;;;;;4924574;29;20537;-74
2021/03/26 10:52:22;;;;;;;18.10;16.23;;;14.50;99.90;;;;;;4918135;29;20677;-72
2021/03/26 10:54:53;;;;;;;21.13;17.57;;;14.60;99.90;;;;;;4906891;29;20835;-74
2021/03/26 10:57:35;;;;;;;21.57;17.03;;;14.60;99.90;;;;;;4904812;29;20475;-74
2021/03/26 11:00:09;;;;;;;18.07;16.00;;;14.60;99.90;;;;;;4914836;29;20470;-72
2021/03/26 11:02:57;;;;;;;28.93;18.87;;;14.60;99.90;;;;;;4918763;29;21057;-72
2021/03/26 11:05:32;;;;;;;21.27;19.13;;;14.80;99.90;;;;;;4912895;29;20463;-71
2021/03/26 11:08:30;;;;;;;22.97;18.13;;;14.80;99.90;;;;;;4906006;29;20498;-69
2021/03/26 11:11:03;;;;;;;19.07;17.20;;;14.80;99.90;;;;;;4885632;29;20979;-71
2021/03/26 11:13:40;;;;;;;21.23;19.03;;;14.80;99.90;;;;;;4908648;29;20455;-70
2021/03/26 11:16:13;;;;;;;18.30;16.40;;;14.70;99.90;;;;;;4918711;29;20465;-70
2021/03/26 11:18:48;;;;;;;20.73;18.30;;;14.70;99.90;;;;;;4918857;29;20466;-70
2021/03/26 11:21:16;;;;;;;19.37;16.73;;;14.80;99.90;;;;;;4919234;29;20486;-70
2021/03/26 11:23:55;;;;;;;20.80;18.00;;;14.90;99.90;;;;;;4919253;29;20462;-70
2021/03/26 11:26:29;;;;;;;19.63;16.47;;;14.60;99.90;;;;;;4919577;29;20472;-72
2021/03/26 11:29:12;;;;;;;21.87;17.77;;;13.80;99.90;;;;;;4918438;29;20989;-72
2021/03/26 11:31:48;;;;;;;20.37;17.77;;;13.40;99.90;;;;;;4917847;29;20490;-73
2021/03/26 11:34:26;;;;;;;20.10;17.50;;;13.30;99.90;;;;;;4918082;29;20471;-71
2021/03/26 11:36:58;;;;;;;21.17;18.87;;;13.50;99.90;;;;;;4917929;29;20954;-71
2021/03/26 11:39:31;;;;;;;18.40;15.63;;;13.70;99.90;;;;;;4918871;29;20459;-72
2021/03/26 11:42:34;;;;;;;22.00;17.03;;;13.90;99.90;;;;;;4918162;29;20490;-75
2021/03/26 11:45:04;;;;;;;18.50;16.47;;;14.10;99.90;;;;;;4829049;29;20495;-72
2021/03/26 11:47:38;;;;;;;19.93;16.00;;;14.40;99.90;;;;;;4905863;29;20578;-74
2021/03/26 11:50:17;;;;;;;17.90;15.70;;;14.40;99.90;;;;;;4917925;29;20503;-73
2021/03/26 11:52:46;;;;;;;17.67;15.50;;;14.50;99.90;;;;;;4918404;29;20529;-73
2021/03/26 11:55:19;;;;;;;22.87;15.90;;;14.60;99.90;;;;;;4919059;29;20463;-73
2021/03/26 11:57:52;;;;;;;19.67;15.50;;;14.60;99.90;;;;;;4918938;29;20625;-73
2021/03/26 12:00:22;;;;;;;19.20;15.83;;;14.80;99.90;;;;;;4916743;29;20462;-72
2021/03/26 12:02:57;;;;;;;18.00;15.77;;;15.00;99.90;;;;;;4917972;29;20493;-73
2021/03/26 12:06:01;;;;;;;20.00;15.50;;;15.10;99.90;;;;;;4917339;29;20465;-73
2021/03/26 12:08:34;;;;;;;19.57;16.00;;;15.20;99.90;;;;;;4900616;29;20462;-73
2021/03/26 12:11:06;;;;;;;19.33;16.20;;;15.10;99.90;;;;;;4916074;29;20487;-73
2021/03/26 12:13:37;;;;;;;19.40;17.30;;;15.20;99.90;;;;;;4917254;29;20840;-73
2021/03/26 12:16:16;;;;;;;17.33;15.50;;;15.10;99.90;;;;;;4912252;29;20479;-74
2021/03/26 12:18:47;;;;;;;21.83;16.83;;;15.10;99.90;;;;;;4918104;29;20474;-74
2021/03/26 12:21:20;;;;;;;18.47;15.83;;;15.10;99.90;;;;;;4917906;29;20501;-74
2021/03/26 12:23:53;;;;;;;19.47;14.80;;;15.10;99.90;;;;;;4917469;29;20584;-73
2021/03/26 12:26:27;;;;;;;19.30;17.20;;;15.10;99.90;;;;;;4917637;29;20466;-73
2021/03/26 12:29:18;;;;;;;19.20;17.17;;;15.20;99.90;;;;;;4917354;29;20489;-73
2021/03/26 12:31:54;;;;;;;21.30;16.53;;;15.20;99.90;;;;;;4915354;29;20497;-74
2021/03/26 12:34:45;;;;;;;20.37;16.80;;;15.20;99.90;;;;;;4917240;29;20462;-73
2021/03/26 12:37:17;;;;;;;18.23;16.37;;;15.10;99.90;;;;;;4917787;29;20795;-73
2021/03/26 12:39:47;;;;;;;20.50;16.53;;;15.10;99.90;;;;;;4917838;29;20478;-74
2021/03/26 12:42:17;;;;;;;20.17;16.70;;;15.10;99.90;;;;;;4916960;29;20490;-73
2021/03/26 12:44:52;;;;;;;19.43;16.50;;;15.20;99.90;;;;;;4917182;29;20463;-75
2021/03/26 12:47:25;;;;;;;19.53;17.43;;;15.30;99.90;;;;;;4918021;29;20462;-73
2021/03/26 12:50:04;;;;;;;21.10;16.70;;;15.40;99.90;;;;;;4916040;29;20510;-71
2021/03/26 12:52:43;;;;;;;18.60;15.83;;;15.40;99.90;;;;;;4916592;29;21002;-71
2021/03/26 12:55:17;;;;;;;22.90;16.53;;;15.40;99.90;;;;;;4916941;29;20566;-71
2021/03/26 12:58:06;;;;;;;21.80;16.70;;;15.50;99.90;;;;;;4917492;29;20458;-71
2021/03/26 13:00:39;;;;;;;18.00;14.83;;;15.50;99.90;;;;;;4920874;29;20562;-71
2021/03/26 13:03:17;;;;;;;17.87;15.47;;;15.60;99.90;;;;;;4916930;29;20466;-71
2021/03/26 13:05:55;;;;;;;18.73;14.83;;;15.60;99.90;;;;;;4916231;29;20465;-71
2021/03/26 13:08:23;;;;;;;18.13;14.33;;;15.70;99.90;;;;;;4917492;29;20552;-71
2021/03/26 13:10:54;;;;;;;15.50;14.00;;;15.90;99.90;;;;;;4916776;29;20993;-71
2021/03/26 13:13:28;;;;;;;17.50;14.50;;;16.00;99.90;;;;;;4916889;29;20481;-71
2021/03/26 13:16:16;;;;;;;15.00;13.40;;;16.10;99.90;;;;;;4916553;29;20982;-71
2021/03/26 13:18:50;;;;;;;18.93;13.60;;;16.00;99.90;;;;;;4917388;29;20509;-71
2021/03/26 13:21:30;;;;;;;15.67;13.63;;;16.00;99.90;;;;;;4916397;29;20867;-71
2021/03/26 13:24:04;;;;;;;14.10;12.70;;;16.00;99.90;;;;;;4897368;29;20531;-71
2021/03/26 13:26:32;;;;;;;13.80;12.40;;;16.00;99.90;;;;;;4897781;29;20475;-73
2021/03/26 13:29:02;;;;;;;14.93;13.37;;;16.00;99.90;;;;;;4898010;29;20573;-72
2021/03/26 13:31:33;;;;;;;15.67;13.97;;;16.00;99.90;;;;;;4897916;29;20495;-73
2021/03/26 13:34:07;;;;;;;15.20;13.50;;;16.00;99.90;;;;;;4899018;29;20535;-73
2021/03/26 13:36:37;;;;;;;13.17;11.87;;;16.10;99.90;;;;;;4916821;29;20518;-72
2021/03/26 13:39:25;;;;;;;12.90;11.60;;;16.20;99.90;;;;;;4916892;29;20965;-72
2021/03/26 13:42:07;;;;;;;13.37;11.97;;;16.40;99.90;;;;;;4920164;29;20487;-75
2021/03/26 13:44:53;;;;;;;13.60;12.10;;;16.50;99.90;;;;;;4920789;29;20522;-73
2021/03/26 13:47:40;;;;;;;15.30;13.57;;;16.60;99.90;;;;;;4917898;29;20474;-73
2021/03/26 13:50:23;;;;;;;15.27;13.13;;;16.40;99.90;;;;;;4917653;29;20490;-72
2021/03/26 13:52:59;;;;;;;12.40;11.10;;;16.30;99.90;;;;;;4917122;29;20918;-73
2021/03/26 13:55:30;;;;;;;13.67;12.33;;;16.30;99.90;;;;;;4917210;29;20470;-73
2021/03/26 13:58:11;;;;;;;12.20;11.07;;;16.30;99.90;;;;;;4917689;29;20471;-72
2021/03/26 14:00:39;;;;;;;12.77;10.90;;;16.40;99.90;;;;;;4918120;29;20694;-72
2021/03/26 14:03:24;;;;;;;13.23;10.83;;;16.50;99.90;;;;;;4917855;29;20470;-72
2021/03/26 14:06:02;;;;;;;12.23;11.10;;;16.50;99.90;;;;;;4924660;29;20476;-72
2021/03/26 14:08:35;;;;;;;12.33;11.07;;;16.40;99.50;;;;;;4919537;29;20954;-73
2021/03/26 14:11:13;;;;;;;12.30;11.20;;;16.30;99.40;;;;;;4917969;29;20559;-72
2021/03/26 14:13:45;;;;;;;12.40;11.17;;;16.40;99.50;;;;;;4918879;29;20462;-72
2021/03/26 14:16:18;;;;;;;11.83;10.63;;;16.30;99.60;;;;;;4923706;29;20463;-73
2021/03/26 14:18:49;;;;;;;11.87;10.43;;;16.30;99.80;;;;;;4923466;29;20466;-73
2021/03/26 14:21:37;;;;;;;12.77;11.47;;;16.30;99.50;;;;;;4920219;29;20499;-73
2021/03/26 14:24:08;;;;;;;10.70;9.80;;;16.30;99.40;;;;;;4919146;29;20483;-73
2021/03/26 14:26:44;;;;;;;10.87;9.77;;;16.30;99.40;;;;;;4917167;29;20562;-72
2021/03/26 14:29:28;;;;;;;11.07;10.03;;;16.20;99.30;;;;;;4917970;29;20537;-73
2021/03/26 14:32:04;;;;;;;12.90;11.10;;;16.30;99.30;;;;;;4917351;29;20491;-73
2021/03/26 14:34:33;;;;;;;11.23;10.13;;;16.10;99.30;;;;;;4918555;29;20525;-74
2021/03/26 14:37:04;;;;;;;13.67;10.80;;;16.10;99.70;;;;;;4920347;29;20466;-74
2021/03/26 14:39:33;;;;;;;11.83;10.73;;;16.00;99.80;;;;;;4922169;29;20521;-74
2021/03/26 14:42:01;;;;;;;10.33;9.37;;;15.90;99.60;;;;;;4921047;29;20521;-75
2021/03/26 14:44:31;;;;;;;11.90;10.80;;;15.90;99.80;;;;;;4919979;29;20470;-74
2021/03/26 14:47:01;;;;;;;11.20;10.20;;;15.90;99.30;;;;;;4920672;29;20587;-74
2021/03/26 14:49:39;;;;;;;12.10;10.03;;;15.90;99.40;;;;;;4920500;29;20943;-74
2021/03/26 14:52:10;;;;;;;12.27;9.90;;;15.90;99.70;;;;;;4920568;29;20831;-74
2021/03/26 14:54:40;;;;;;;10.37;9.47;;;15.80;99.50;;;;;;4921583;29;20467;-74
2021/03/26 14:57:16;;;;;;;10.37;9.47;;;15.80;99.30;;;;;;4920298;29;20474;-74
2021/03/26 15:00:12;;;;;;;9.97;9.07;;;15.70;99.30;;;;;;4922487;29;20461;-74
2021/03/26 15:02:44;;;;;;;11.43;10.23;;;15.60;99.80;;;;;;4938645;29;20488;-74
2021/03/26 15:05:18;;;;;;;11.83;10.03;;;15.50;99.90;;;;;;4938982;29;20879;-74
2021/03/26 15:07:50;;;;;;;10.70;9.70;;;15.60;99.90;;;;;;4939866;29;20582;-75
2021/03/26 15:10:28;;;;;;;8.93;8.03;;;15.70;99.90;;;;;;4939704;29;20903;-74
2021/03/26 15:13:06;;;;;;;11.23;9.97;;;15.70;98.90;;;;;;4939243;29;20469;-75
2021/03/26 15:15:43;;;;;;;10.57;9.60;;;15.80;98.90;;;;;;4921119;29;20482;-75
2021/03/26 15:18:42;;;;;;;9.87;8.87;;;15.80;99.90;;;;;;4926943;29;20952;-73
2021/03/26 15:21:20;;;;;;;9.10;8.30;;;15.80;99.90;;;;;;4914941;29;20497;-73
2021/03/26 15:24:01;;;;;;;9.10;7.60;;;15.80;99.90;;;;;;4924005;29;20466;-72
2021/03/26 15:26:30;;;;;;;41.53;10.43;;;15.70;99.90;;;;;;4922921;29;20473;-73
2021/03/26 15:29:06;;;;;;;8.50;7.70;;;15.80;99.90;;;;;;4903104;29;20467;-74
2021/03/26 15:31:46;;;;;;;8.50;7.80;;;15.70;99.90;;;;;;4916053;29;20864;-71
2021/03/26 15:34:24;;;;;;;10.33;8.47;;;15.70;99.90;;;;;;4924607;29;20541;-73
2021/03/26 15:36:54;;;;;;;9.17;8.43;;;15.80;99.60;;;;;;4923079;29;20477;-75
2021/03/26 15:39:32;;;;;;;9.90;8.70;;;15.80;99.60;;;;;;4922199;29;20454;-73
2021/03/26 15:42:07;;;;;;;8.67;7.87;;;15.70;99.30;;;;;;4919239;29;20482;-72
2021/03/26 15:44:39;;;;;;;9.23;8.33;;;15.70;99.90;;;;;;4918819;29;20570;-70
2021/03/26 15:47:12;;;;;;;10.47;9.07;;;15.70;99.70;;;;;;4916389;29;20478;-70
2021/03/26 15:49:43;;;;;;;9.13;8.33;;;15.70;99.90;;;;;;4917723;29;20486;-71
2021/03/26 15:52:17;;;;;;;8.67;7.77;;;15.70;99.30;;;;;;4917838;29;20903;-70
2021/03/26 15:55:15;;;;;;;9.60;8.70;;;15.70;98.80;;;;;;4918241;29;20465;-71
2021/03/26 15:58:01;;;;;;;9.33;8.40;;;15.60;98.40;;;;;;4918252;29;20884;-73
2021/03/26 16:00:59;;;;;;;8.30;7.60;;;15.60;98.80;;;;;;4922449;29;20589;-71
2021/03/26 16:03:43;;;;;;;11.87;8.40;;;15.60;98.50;;;;;;4917861;29;20525;-70
2021/03/26 16:06:29;;;;;;;9.45;8.55;;;15.60;98.60;;;;;;4915818;29;20546;-71
2021/03/26 16:09:22;;;;;;;8.23;7.50;;;15.60;98.80;;;;;;4917622;29;20869;-71
2021/03/26 16:12:07;;;;;;;9.90;8.20;;;15.50;99.00;;;;;;4918031;29;20813;-71
2021/03/26 16:14:46;;;;;;;8.70;8.00;;;15.50;99.20;;;;;;4917638;29;20459;-71
2021/03/26 16:18:00;;;;;;;9.00;8.10;;;15.50;99.10;;;;;;4917858;29;20816;-71
2021/03/26 16:21:03;;;;;;;9.50;7.53;;;15.50;99.10;;;;;;4882979;29;20478;-71
2021/03/26 16:23:47;;;;;;;10.43;7.77;;;15.50;99.20;;;;;;4917068;29;20462;-71
2021/03/26 16:26:31;;;;;;;8.97;8.17;;;15.50;99.00;;;;;;4917738;29;20843;-73
2021/03/26 16:29:23;;;;;;;8.33;7.53;;;15.50;99.20;;;;;;4917433;29;20466;-71
2021/03/26 16:32:19;;;;;;;8.90;7.40;;;15.50;99.10;;;;;;4916652;29;20500;-72
2021/03/26 16:35:04;;;;;;;11.27;8.10;;;15.40;99.30;;;;;;4917111;29;20522;-71
2021/03/26 16:37:39;;;;;;;9.33;8.53;;;15.40;98.80;;;;;;4917215;29;20550;-71
2021/03/26 16:40:31;;;;;;;9.97;8.37;;;15.40;99.10;;;;;;4916995;29;20805;-72
2021/03/26 16:43:25;;;;;;;11.60;8.87;;;15.30;99.40;;;;;;4914706;29;20486;-72
2021/03/26 16:45:58;;;;;;;8.43;7.47;;;15.30;99.40;;;;;;4916522;29;20462;-71
2021/03/26 16:48:43;;;;;;;9.13;8.10;;;15.20;99.40;;;;;;4917575;29;20489;-72
2021/03/26 16:51:30;;;;;;;8.33;7.63;;;15.20;99.50;;;;;;4916511;29;20516;-72
2021/03/26 16:54:02;;;;;;;11.40;9.17;;;15.20;99.50;;;;;;4917386;29;20523;-70
2021/03/26 16:56:56;;;;;;;9.03;8.13;;;15.10;99.40;;;;;;4917110;29;20473;-74
2021/03/26 16:59:35;;;;;;;10.27;9.30;;;15.10;99.80;;;;;;4922423;29;20488;-71
2021/03/26 17:02:26;;;;;;;10.00;8.97;;;14.90;99.20;;;;;;4923059;29;20639;-72
2021/03/26 17:05:32;;;;;;;9.53;8.80;;;14.80;99.80;;;;;;4918608;29;20470;-71
2021/03/26 17:08:13;;;;;;;10.20;9.30;;;14.70;99.90;;;;;;4905001;29;20525;-72
2021/03/26 17:11:11;;;;;;;9.23;8.43;;;14.70;99.90;;;;;;4918248;29;20501;-76
2021/03/26 17:14:19;;;;;;;9.40;8.50;;;14.60;99.90;;;;;;4907475;29;20463;-74
2021/03/26 17:17:11;;;;;;;9.67;8.70;;;14.50;99.90;;;;;;4903582;29;20470;-71
2021/03/26 17:20:38;;;;;;;11.57;8.53;;;14.40;99.90;;;;;;4916564;29;20462;-70
2021/03/26 17:23:31;;;;;;;11.03;8.73;;;14.40;99.90;;;;;;4839141;29;20469;-76
2021/03/26 17:26:19;;;;;;;9.87;8.87;;;14.30;99.90;;;;;;4832227;29;20947;-75
2021/03/26 17:29:11;;;;;;;9.68;8.77;;;14.20;99.90;;;;;;4913764;29;20595;-76
2021/03/26 17:32:15;;;;;;;10.70;9.07;;;14.10;99.90;;;;;;4916671;29;20230;-76
2021/03/26 17:34:50;;;;;;;9.48;8.65;;;14.00;99.90;;;;;;4911993;29;20783;-76
2021/03/26 17:37:38;;;;;;;10.68;9.73;;;13.90;99.90;;;;;;4917930;29;20210;-76
2021/03/26 17:40:49;;;;;;;9.38;8.45;;;13.80;99.90;;;;;;4916126;29;20210;-76
2021/03/26 17:43:25;;;;;;;10.00;9.00;;;13.80;99.90;;;;;;4899889;29;20302;-76
2021/03/26 17:46:02;;;;;;;10.05;9.13;;;13.70;99.90;;;;;;4916163;29;20470;-76
2021/03/26 17:48:43;;;;;;;9.93;8.88;;;13.60;99.90;;;;;;4912493;29;20203;-76
2021/03/26 17:51:27;;;;;;;11.02;9.93;;;13.60;99.90;;;;;;4907735;29;20540;-75
2021/03/26 17:54:50;;;;;;;9.73;8.73;;;13.50;99.90;;;;;;4907691;29;20257;-75
2021/03/26 17:57:27;;;;;;;10.05;9.15;;;13.40;99.90;;;;;;4839954;29;20209;-75
2021/03/26 18:00:33;;;;;;;11.05;8.68;;;13.30;99.90;;;;;;4839296;29;20205;-75
2021/03/26 18:03:23;;;;;;;12.23;9.88;;;13.10;99.90;;;;;;4896457;29;20202;-75
2021/03/26 18:06:23;;;;;;;11.85;8.93;;;13.00;99.90;;;;;;4903472;29;20213;-74
2021/03/26 18:08:57;;;;;;;13.18;8.73;;;12.90;99.90;;;;;;4912768;29;20233;-75
2021/03/26 18:11:34;;;;;;;11.20;9.25;;;12.80;99.90;;;;;;4915705;29;20237;-76
2021/03/26 18:14:17;;;;;;;9.25;8.43;;;12.70;99.90;;;;;;4912292;29;20221;-76
2021/03/26 18:17:01;;;;;;;10.30;9.30;;;12.60;99.90;;;;;;4915679;29;20693;-75
2021/03/26 18:19:34;;;;;;;11.13;9.60;;;12.50;99.90;;;;;;4912258;29;20202;-73
2021/03/26 18:22:11;;;;;;;12.88;9.60;;;12.40;99.90;;;;;;4916701;29;20226;-74
2021/03/26 18:25:17;;;;;;;10.40;9.40;;;12.40;99.90;;;;;;4901916;29;20207;-74
2021/03/26 18:28:18;;;;;;;10.40;9.18;;;12.30;99.90;;;;;;4897041;29;20660;-74
2021/03/26 18:31:18;;;;;;;10.40;9.35;;;12.20;99.90;;;;;;4897348;29;20250;-74
2021/03/26 18:34:29;;;;;;;10.60;9.52;;;12.20;99.90;;;;;;4913740;29;20212;-74
2021/03/26 18:37:00;;;;;;;10.55;9.48;;;12.10;99.90;;;;;;4899764;29;20372;-74
2021/03/26 18:39:38;;;;;;;12.70;10.13;;;12.00;99.90;;;;;;4913545;29;20215;-73
2021/03/26 18:42:29;;;;;;;12.23;10.32;;;12.00;99.90;;;;;;4914140;29;20265;-74
2021/03/26 18:45:30;;;;;;;11.70;10.23;;;11.90;99.90;;;;;;4913194;29;20710;-74